sensor_id;sensor_type;location;lat;lon;timestamp;P1;durP1;ratioP1;P2;durP2;ratioP2
49366;SDS011;35245;52.026;8.540;2023-08-07T00:01:59;12.40;;;4.72;;
49366;SDS011;35245;52.026;8.540;2023-08-07T00:04:27;9.55;;;4.25;;
49366;SDS011;35245;52.026;8.540;2023-08-07T00:06:54;11.38;;;4.95;;
49366;SDS011;35245;52.026;8.540;2023-08-07T00:09:23;11.55;;;3.92;;
49366;SDS011;35245;52.026;8.540;2023-08-07T00:11:50;10.80;;;4.57;;
49366;SDS011;35245;52.026;8.540;2023-08-07T00:14:18;11.90;;;3.85;;
49366;SDS011;35245;52.026;8.540;2023-08-07T00:16:45;10.05;;;4.40;;
49366;SDS011;35245;52.026;8.540;2023-08-07T00:19:12;9.45;;;4.40;;
49366;SDS011;35245;52.026;8.540;2023-08-07T00:21:39;11.40;;;4.38;;
49366;SDS011;35245;52.026;8.540;2023-08-07T00:24:07;10.18;;;4.30;;
49366;SDS011;35245;52.026;8.540;2023-08-07T00:26:35;8.80;;;3.42;;
49366;SDS011;35245;52.026;8.540;2023-08-07T00:29:02;9.80;;;4.10;;
49366;SDS011;35245;52.026;8.540;2023-08-07T00:31:29;12.52;;;4.15;;
49366;SDS011;35245;52.026;8.540;2023-08-07T00:33:57;14.23;;;4.57;;
49366;SDS011;35245;52.026;8.540;2023-08-07T00:36:25;9.65;;;4.32;;
49366;SDS011;35245;52.026;8.540;2023-08-07T00:38:53;10.48;;;4.45;;
49366;SDS011;35245;52.026;8.540;2023-08-07T00:41:20;12.88;;;4.00;;
49366;SDS011;35245;52.026;8.540;2023-08-07T00:43:49;14.23;;;4.05;;
49366;SDS011;35245;52.026;8.540;2023-08-07T00:46:17;8.32;;;4.05;;
49366;SDS011;35245;52.026;8.540;2023-08-07T00:48:45;7.07;;;3.70;;
49366;SDS011;35245;52.026;8.540;2023-08-07T00:51:12;10.13;;;3.72;;
49366;SDS011;35245;52.026;8.540;2023-08-07T00:53:41;11.70;;;3.90;;
49366;SDS011;35245;52.026;8.540;2023-08-07T00:56:09;9.13;;;3.88;;
49366;SDS011;35245;52.026;8.540;2023-08-07T00:58:36;9.88;;;3.88;;
49366;SDS011;35245;52.026;8.540;2023-08-07T01:01:05;6.88;;;3.25;;
49366;SDS011;35245;52.026;8.540;2023-08-07T01:03:33;12.75;;;3.97;;
49366;SDS011;35245;52.026;8.540;2023-08-07T01:06:00;9.48;;;4.32;;
49366;SDS011;35245;52.026;8.540;2023-08-07T01:08:28;12.95;;;3.33;;
49366;SDS011;35245;52.026;8.540;2023-08-07T01:11:01;10.45;;;3.90;;
49366;SDS011;35245;52.026;8.540;2023-08-07T01:13:45;11.48;;;4.47;;
49366;SDS011;35245;52.026;8.540;2023-08-07T01:16:25;13.32;;;4.90;;
49366;SDS011;35245;52.026;8.540;2023-08-07T01:18:58;6.07;;;4.20;;
49366;SDS011;35245;52.026;8.540;2023-08-07T01:21:28;8.10;;;4.63;;
49366;SDS011;35245;52.026;8.540;2023-08-07T01:23:56;8.68;;;4.70;;
49366;SDS011;35245;52.026;8.540;2023-08-07T01:26:23;8.93;;;4.38;;
49366;SDS011;35245;52.026;8.540;2023-08-07T01:28:53;10.25;;;5.25;;
49366;SDS011;35245;52.026;8.540;2023-08-07T01:31:34;11.95;;;5.18;;
49366;SDS011;35245;52.026;8.540;2023-08-07T01:34:05;11.32;;;5.28;;
49366;SDS011;35245;52.026;8.540;2023-08-07T01:36:34;13.20;;;5.20;;
49366;SDS011;35245;52.026;8.540;2023-08-07T01:39:06;10.68;;;4.82;;
49366;SDS011;35245;52.026;8.540;2023-08-07T01:41:34;10.32;;;5.00;;
49366;SDS011;35245;52.026;8.540;2023-08-07T01:44:03;11.13;;;6.05;;
49366;SDS011;35245;52.026;8.540;2023-08-07T01:46:31;11.00;;;5.60;;
49366;SDS011;35245;52.026;8.540;2023-08-07T01:48:58;15.20;;;5.85;;
49366;SDS011;35245;52.026;8.540;2023-08-07T01:51:25;11.95;;;5.15;;
49366;SDS011;35245;52.026;8.540;2023-08-07T01:53:52;14.45;;;5.55;;
49366;SDS011;35245;52.026;8.540;2023-08-07T01:56:21;7.72;;;5.15;;
49366;SDS011;35245;52.026;8.540;2023-08-07T01:58:48;9.60;;;4.70;;
49366;SDS011;35245;52.026;8.540;2023-08-07T02:01:15;11.55;;;4.70;;
49366;SDS011;35245;52.026;8.540;2023-08-07T02:03:42;13.82;;;6.05;;
49366;SDS011;35245;52.026;8.540;2023-08-07T02:06:09;10.23;;;5.07;;
49366;SDS011;35245;52.026;8.540;2023-08-07T02:08:36;11.35;;;6.05;;
49366;SDS011;35245;52.026;8.540;2023-08-07T02:11:03;9.95;;;6.05;;
49366;SDS011;35245;52.026;8.540;2023-08-07T02:13:32;11.02;;;6.07;;
49366;SDS011;35245;52.026;8.540;2023-08-07T02:15:59;11.73;;;6.78;;
49366;SDS011;35245;52.026;8.540;2023-08-07T02:18:26;11.00;;;5.88;;
49366;SDS011;35245;52.026;8.540;2023-08-07T02:20:53;12.40;;;6.45;;
49366;SDS011;35245;52.026;8.540;2023-08-07T02:23:20;13.02;;;5.68;;
49366;SDS011;35245;52.026;8.540;2023-08-07T02:25:48;10.15;;;5.70;;
49366;SDS011;35245;52.026;8.540;2023-08-07T02:28:15;9.20;;;5.07;;
49366;SDS011;35245;52.026;8.540;2023-08-07T02:30:46;9.38;;;5.85;;
49366;SDS011;35245;52.026;8.540;2023-08-07T02:33:13;10.77;;;6.03;;
49366;SDS011;35245;52.026;8.540;2023-08-07T02:35:41;12.38;;;5.90;;
49366;SDS011;35245;52.026;8.540;2023-08-07T02:38:08;9.43;;;5.05;;
49366;SDS011;35245;52.026;8.540;2023-08-07T02:40:35;15.63;;;5.53;;
49366;SDS011;35245;52.026;8.540;2023-08-07T02:43:02;9.68;;;5.22;;
49366;SDS011;35245;52.026;8.540;2023-08-07T02:45:29;13.57;;;5.50;;
49366;SDS011;35245;52.026;8.540;2023-08-07T02:47:58;11.05;;;5.55;;
49366;SDS011;35245;52.026;8.540;2023-08-07T02:50:25;8.45;;;5.43;;
49366;SDS011;35245;52.026;8.540;2023-08-07T02:52:54;12.57;;;5.50;;
49366;SDS011;35245;52.026;8.540;2023-08-07T02:55:21;8.45;;;4.57;;
49366;SDS011;35245;52.026;8.540;2023-08-07T02:57:49;10.00;;;5.90;;
49366;SDS011;35245;52.026;8.540;2023-08-07T03:00:16;12.57;;;5.50;;
49366;SDS011;35245;52.026;8.540;2023-08-07T03:02:43;11.32;;;5.50;;
49366;SDS011;35245;52.026;8.540;2023-08-07T03:05:12;10.05;;;5.55;;
49366;SDS011;35245;52.026;8.540;2023-08-07T03:07:39;9.48;;;5.40;;
49366;SDS011;35245;52.026;8.540;2023-08-07T03:10:06;11.48;;;6.22;;
49366;SDS011;35245;52.026;8.540;2023-08-07T03:12:34;12.93;;;6.00;;
49366;SDS011;35245;52.026;8.540;2023-08-07T03:15:02;11.35;;;5.50;;
49366;SDS011;35245;52.026;8.540;2023-08-07T03:17:31;9.88;;;5.90;;
49366;SDS011;35245;52.026;8.540;2023-08-07T03:19:58;12.48;;;5.68;;
49366;SDS011;35245;52.026;8.540;2023-08-07T03:22:26;9.10;;;5.97;;
49366;SDS011;35245;52.026;8.540;2023-08-07T03:24:53;14.48;;;6.88;;
49366;SDS011;35245;52.026;8.540;2023-08-07T03:27:21;9.50;;;5.85;;
49366;SDS011;35245;52.026;8.540;2023-08-07T03:29:48;13.70;;;6.63;;
49366;SDS011;35245;52.026;8.540;2023-08-07T03:32:15;10.40;;;6.22;;
49366;SDS011;35245;52.026;8.540;2023-08-07T03:34:42;13.00;;;6.10;;
49366;SDS011;35245;52.026;8.540;2023-08-07T03:37:09;15.80;;;7.40;;
49366;SDS011;35245;52.026;8.540;2023-08-07T03:39:38;12.90;;;6.78;;
49366;SDS011;35245;52.026;8.540;2023-08-07T03:42:05;11.88;;;7.00;;
49366;SDS011;35245;52.026;8.540;2023-08-07T03:44:33;11.18;;;6.85;;
49366;SDS011;35245;52.026;8.540;2023-08-07T03:47:00;12.02;;;6.82;;
49366;SDS011;35245;52.026;8.540;2023-08-07T03:49:27;9.57;;;7.00;;
49366;SDS011;35245;52.026;8.540;2023-08-07T03:51:54;10.88;;;7.03;;
49366;SDS011;35245;52.026;8.540;2023-08-07T03:54:24;11.07;;;7.32;;
49366;SDS011;35245;52.026;8.540;2023-08-07T03:56:52;10.73;;;6.70;;
49366;SDS011;35245;52.026;8.540;2023-08-07T03:59:19;10.70;;;6.60;;
49366;SDS011;35245;52.026;8.540;2023-08-07T04:01:46;11.43;;;6.78;;
49366;SDS011;35245;52.026;8.540;2023-08-07T04:04:13;14.25;;;7.40;;
49366;SDS011;35245;52.026;8.540;2023-08-07T04:06:40;11.07;;;7.07;;
49366;SDS011;35245;52.026;8.540;2023-08-07T04:09:09;12.35;;;7.60;;
49366;SDS011;35245;52.026;8.540;2023-08-07T04:11:36;10.63;;;6.78;;
49366;SDS011;35245;52.026;8.540;2023-08-07T04:14:05;10.05;;;6.53;;
49366;SDS011;35245;52.026;8.540;2023-08-07T04:16:32;12.68;;;7.47;;
49366;SDS011;35245;52.026;8.540;2023-08-07T04:18:59;11.15;;;6.63;;
49366;SDS011;35245;52.026;8.540;2023-08-07T04:21:26;10.35;;;6.57;;
49366;SDS011;35245;52.026;8.540;2023-08-07T04:23:54;9.77;;;6.68;;
49366;SDS011;35245;52.026;8.540;2023-08-07T04:26:21;12.23;;;6.80;;
49366;SDS011;35245;52.026;8.540;2023-08-07T04:28:48;11.52;;;6.43;;
49366;SDS011;35245;52.026;8.540;2023-08-07T04:31:16;10.60;;;6.45;;
49366;SDS011;35245;52.026;8.540;2023-08-07T04:33:44;13.57;;;6.40;;
49366;SDS011;35245;52.026;8.540;2023-08-07T04:36:11;9.43;;;5.80;;
49366;SDS011;35245;52.026;8.540;2023-08-07T04:38:38;8.80;;;5.68;;
49366;SDS011;35245;52.026;8.540;2023-08-07T04:41:05;11.60;;;6.03;;
49366;SDS011;35245;52.026;8.540;2023-08-07T04:43:32;11.52;;;5.78;;
49366;SDS011;35245;52.026;8.540;2023-08-07T04:45:59;8.25;;;5.32;;
49366;SDS011;35245;52.026;8.540;2023-08-07T04:48:28;8.35;;;5.35;;
49366;SDS011;35245;52.026;8.540;2023-08-07T04:50:56;8.80;;;5.63;;
49366;SDS011;35245;52.026;8.540;2023-08-07T04:53:24;8.15;;;5.30;;
49366;SDS011;35245;52.026;8.540;2023-08-07T04:55:51;8.40;;;5.20;;
49366;SDS011;35245;52.026;8.540;2023-08-07T04:58:18;8.10;;;5.50;;
49366;SDS011;35245;52.026;8.540;2023-08-07T05:00:45;6.53;;;4.75;;
49366;SDS011;35245;52.026;8.540;2023-08-07T05:03:12;6.45;;;4.60;;
49366;SDS011;35245;52.026;8.540;2023-08-07T05:05:41;7.28;;;4.70;;
49366;SDS011;35245;52.026;8.540;2023-08-07T05:08:08;5.65;;;4.40;;
49366;SDS011;35245;52.026;8.540;2023-08-07T05:10:36;7.40;;;4.50;;
49366;SDS011;35245;52.026;8.540;2023-08-07T05:13:03;5.70;;;4.38;;
49366;SDS011;35245;52.026;8.540;2023-08-07T05:15:30;7.68;;;4.32;;
49366;SDS011;35245;52.026;8.540;2023-08-07T05:17:57;7.78;;;4.45;;
49366;SDS011;35245;52.026;8.540;2023-08-07T05:20:24;8.07;;;4.25;;
49366;SDS011;35245;52.026;8.540;2023-08-07T05:22:52;8.27;;;4.35;;
49366;SDS011;35245;52.026;8.540;2023-08-07T05:25:21;7.15;;;4.10;;
49366;SDS011;35245;52.026;8.540;2023-08-07T05:27:48;8.00;;;3.92;;
49366;SDS011;35245;52.026;8.540;2023-08-07T05:30:15;7.22;;;4.22;;
49366;SDS011;35245;52.026;8.540;2023-08-07T05:32:42;8.98;;;3.80;;
49366;SDS011;35245;52.026;8.540;2023-08-07T05:35:09;5.70;;;3.63;;
49366;SDS011;35245;52.026;8.540;2023-08-07T05:37:36;7.40;;;3.15;;
49366;SDS011;35245;52.026;8.540;2023-08-07T05:40:06;6.63;;;3.33;;
49366;SDS011;35245;52.026;8.540;2023-08-07T05:42:37;5.57;;;3.67;;
49366;SDS011;35245;52.026;8.540;2023-08-07T05:45:04;4.32;;;3.13;;
49366;SDS011;35245;52.026;8.540;2023-08-07T05:47:33;8.63;;;3.70;;
49366;SDS011;35245;52.026;8.540;2023-08-07T05:50:00;8.00;;;3.45;;
49366;SDS011;35245;52.026;8.540;2023-08-07T05:52:27;7.72;;;3.75;;
49366;SDS011;35245;52.026;8.540;2023-08-07T05:54:54;6.03;;;3.13;;
49366;SDS011;35245;52.026;8.540;2023-08-07T05:57:23;7.55;;;3.10;;
49366;SDS011;35245;52.026;8.540;2023-08-07T05:59:50;7.53;;;3.05;;
49366;SDS011;35245;52.026;8.540;2023-08-07T06:02:17;5.13;;;2.38;;
49366;SDS011;35245;52.026;8.540;2023-08-07T06:04:44;5.95;;;2.80;;
49366;SDS011;35245;52.026;8.540;2023-08-07T06:07:12;6.72;;;2.72;;
49366;SDS011;35245;52.026;8.540;2023-08-07T06:09:39;8.52;;;2.88;;
49366;SDS011;35245;52.026;8.540;2023-08-07T06:12:06;8.98;;;2.47;;
49366;SDS011;35245;52.026;8.540;2023-08-07T06:14:36;5.47;;;2.38;;
49366;SDS011;35245;52.026;8.540;2023-08-07T06:17:03;5.82;;;2.20;;
49366;SDS011;35245;52.026;8.540;2023-08-07T06:19:31;10.30;;;2.58;;
49366;SDS011;35245;52.026;8.540;2023-08-07T06:21:58;7.00;;;2.28;;
49366;SDS011;35245;52.026;8.540;2023-08-07T06:24:25;7.05;;;2.10;;
49366;SDS011;35245;52.026;8.540;2023-08-07T06:26:52;5.50;;;1.95;;
49366;SDS011;35245;52.026;8.540;2023-08-07T06:29:19;5.40;;;1.92;;
49366;SDS011;35245;52.026;8.540;2023-08-07T06:31:47;7.72;;;2.38;;
49366;SDS011;35245;52.026;8.540;2023-08-07T06:34:15;6.35;;;1.90;;
49366;SDS011;35245;52.026;8.540;2023-08-07T06:36:42;3.78;;;2.00;;
49366;SDS011;35245;52.026;8.540;2023-08-07T06:39:09;5.20;;;2.05;;
49366;SDS011;35245;52.026;8.540;2023-08-07T06:41:37;5.82;;;1.77;;
49366;SDS011;35245;52.026;8.540;2023-08-07T06:44:04;6.22;;;2.83;;
49366;SDS011;35245;52.026;8.540;2023-08-07T06:46:31;4.78;;;2.15;;
49366;SDS011;35245;52.026;8.540;2023-08-07T06:49:00;6.38;;;2.03;;
49366;SDS011;35245;52.026;8.540;2023-08-07T06:51:27;8.43;;;2.40;;
49366;SDS011;35245;52.026;8.540;2023-08-07T06:53:54;4.10;;;1.83;;
49366;SDS011;35245;52.026;8.540;2023-08-07T06:56:21;10.45;;;2.03;;
49366;SDS011;35245;52.026;8.540;2023-08-07T06:58:48;5.80;;;1.85;;
49366;SDS011;35245;52.026;8.540;2023-08-07T07:01:15;3.33;;;1.67;;
49366;SDS011;35245;52.026;8.540;2023-08-07T07:03:42;4.38;;;1.80;;
49366;SDS011;35245;52.026;8.540;2023-08-07T07:06:13;3.30;;;1.80;;
49366;SDS011;35245;52.026;8.540;2023-08-07T07:08:40;2.92;;;1.63;;
49366;SDS011;35245;52.026;8.540;2023-08-07T07:11:07;6.43;;;2.05;;
49366;SDS011;35245;52.026;8.540;2023-08-07T07:13:34;5.38;;;1.70;;
49366;SDS011;35245;52.026;8.540;2023-08-07T07:16:01;5.13;;;1.70;;
49366;SDS011;35245;52.026;8.540;2023-08-07T07:18:28;5.93;;;2.03;;
49366;SDS011;35245;52.026;8.540;2023-08-07T07:20:56;5.38;;;1.65;;
49366;SDS011;35245;52.026;8.540;2023-08-07T07:23:26;4.28;;;1.75;;
49366;SDS011;35245;52.026;8.540;2023-08-07T07:25:54;4.50;;;2.00;;
49366;SDS011;35245;52.026;8.540;2023-08-07T07:28:21;5.35;;;1.80;;
49366;SDS011;35245;52.026;8.540;2023-08-07T07:30:48;2.88;;;2.05;;
49366;SDS011;35245;52.026;8.540;2023-08-07T07:33:15;4.25;;;2.15;;
49366;SDS011;35245;52.026;8.540;2023-08-07T07:35:43;7.50;;;2.25;;
49366;SDS011;35245;52.026;8.540;2023-08-07T07:38:10;5.45;;;2.20;;
49366;SDS011;35245;52.026;8.540;2023-08-07T07:40:38;5.88;;;2.40;;
49366;SDS011;35245;52.026;8.540;2023-08-07T07:43:05;5.88;;;2.17;;
49366;SDS011;35245;52.026;8.540;2023-08-07T07:45:32;5.80;;;1.98;;
49366;SDS011;35245;52.026;8.540;2023-08-07T07:48:00;6.32;;;2.35;;
49366;SDS011;35245;52.026;8.540;2023-08-07T07:50:28;5.20;;;2.38;;
49366;SDS011;35245;52.026;8.540;2023-08-07T07:52:55;10.00;;;2.78;;
49366;SDS011;35245;52.026;8.540;2023-08-07T07:55:22;9.82;;;4.18;;
49366;SDS011;35245;52.026;8.540;2023-08-07T07:57:52;22.27;;;5.10;;
49366;SDS011;35245;52.026;8.540;2023-08-07T08:00:20;64.18;;;6.65;;
49366;SDS011;35245;52.026;8.540;2023-08-07T08:02:51;14.82;;;6.60;;
49366;SDS011;35245;52.026;8.540;2023-08-07T08:05:19;11.32;;;5.80;;
49366;SDS011;35245;52.026;8.540;2023-08-07T08:07:46;9.38;;;5.47;;
49366;SDS011;35245;52.026;8.540;2023-08-07T08:10:13;11.10;;;4.97;;
49366;SDS011;35245;52.026;8.540;2023-08-07T08:12:40;14.48;;;7.20;;
49366;SDS011;35245;52.026;8.540;2023-08-07T08:15:09;11.90;;;5.85;;
49366;SDS011;35245;52.026;8.540;2023-08-07T08:17:36;14.02;;;7.55;;
49366;SDS011;35245;52.026;8.540;2023-08-07T08:20:04;21.25;;;8.60;;
49366;SDS011;35245;52.026;8.540;2023-08-07T08:22:33;16.95;;;7.03;;
49366;SDS011;35245;52.026;8.540;2023-08-07T08:25:00;21.73;;;9.68;;
49366;SDS011;35245;52.026;8.540;2023-08-07T08:27:29;17.08;;;8.25;;
49366;SDS011;35245;52.026;8.540;2023-08-07T08:29:56;14.50;;;7.53;;
49366;SDS011;35245;52.026;8.540;2023-08-07T08:32:24;12.40;;;6.68;;
49366;SDS011;35245;52.026;8.540;2023-08-07T08:34:52;12.02;;;6.97;;
49366;SDS011;35245;52.026;8.540;2023-08-07T08:37:19;16.77;;;7.70;;
49366;SDS011;35245;52.026;8.540;2023-08-07T08:39:46;14.40;;;6.55;;
49366;SDS011;35245;52.026;8.540;2023-08-07T08:42:13;8.75;;;4.30;;
49366;SDS011;35245;52.026;8.540;2023-08-07T08:44:42;11.85;;;4.22;;
49366;SDS011;35245;52.026;8.540;2023-08-07T08:47:17;13.02;;;4.20;;
49366;SDS011;35245;52.026;8.540;2023-08-07T08:49:47;13.68;;;3.90;;
49366;SDS011;35245;52.026;8.540;2023-08-07T08:52:17;9.60;;;4.43;;
49366;SDS011;35245;52.026;8.540;2023-08-07T08:54:45;9.93;;;4.93;;
49366;SDS011;35245;52.026;8.540;2023-08-07T08:57:13;12.38;;;5.00;;
49366;SDS011;35245;52.026;8.540;2023-08-07T08:59:41;13.18;;;3.67;;
49366;SDS011;35245;52.026;8.540;2023-08-07T09:02:08;13.23;;;3.83;;
49366;SDS011;35245;52.026;8.540;2023-08-07T09:04:35;9.10;;;3.95;;
49366;SDS011;35245;52.026;8.540;2023-08-07T09:07:04;10.57;;;3.63;;
49366;SDS011;35245;52.026;8.540;2023-08-07T09:09:32;7.72;;;3.60;;
49366;SDS011;35245;52.026;8.540;2023-08-07T09:11:59;13.35;;;3.53;;
49366;SDS011;35245;52.026;8.540;2023-08-07T09:14:29;9.80;;;3.72;;
49366;SDS011;35245;52.026;8.540;2023-08-07T09:16:59;14.35;;;3.85;;
49366;SDS011;35245;52.026;8.540;2023-08-07T09:19:27;7.47;;;3.47;;
49366;SDS011;35245;52.026;8.540;2023-08-07T09:21:54;6.45;;;3.20;;
49366;SDS011;35245;52.026;8.540;2023-08-07T09:24:23;11.23;;;3.90;;
49366;SDS011;35245;52.026;8.540;2023-08-07T09:26:50;8.60;;;3.22;;
49366;SDS011;35245;52.026;8.540;2023-08-07T09:29:18;7.80;;;2.95;;
49366;SDS011;35245;52.026;8.540;2023-08-07T09:31:48;5.55;;;2.63;;
49366;SDS011;35245;52.026;8.540;2023-08-07T09:34:15;8.35;;;2.92;;
49366;SDS011;35245;52.026;8.540;2023-08-07T09:36:46;7.57;;;2.95;;
49366;SDS011;35245;52.026;8.540;2023-08-07T09:39:13;8.02;;;2.95;;
49366;SDS011;35245;52.026;8.540;2023-08-07T09:41:42;10.68;;;2.97;;
49366;SDS011;35245;52.026;8.540;2023-08-07T09:44:09;7.13;;;2.75;;
49366;SDS011;35245;52.026;8.540;2023-08-07T09:46:40;6.65;;;2.50;;
49366;SDS011;35245;52.026;8.540;2023-08-07T09:51:42;8.27;;;2.40;;
49366;SDS011;35245;52.026;8.540;2023-08-07T09:54:10;5.15;;;2.25;;
49366;SDS011;35245;52.026;8.540;2023-08-07T09:56:37;9.32;;;2.53;;
49366;SDS011;35245;52.026;8.540;2023-08-07T09:59:08;8.38;;;2.55;;
49366;SDS011;35245;52.026;8.540;2023-08-07T10:01:36;10.25;;;2.92;;
49366;SDS011;35245;52.026;8.540;2023-08-07T10:04:04;9.02;;;2.65;;
49366;SDS011;35245;52.026;8.540;2023-08-07T10:06:32;8.73;;;3.03;;
49366;SDS011;35245;52.026;8.540;2023-08-07T10:09:00;6.95;;;2.22;;
49366;SDS011;35245;52.026;8.540;2023-08-07T10:11:28;10.02;;;2.38;;
49366;SDS011;35245;52.026;8.540;2023-08-07T10:13:56;9.65;;;2.00;;
49366;SDS011;35245;52.026;8.540;2023-08-07T10:16:26;7.20;;;3.00;;
49366;SDS011;35245;52.026;8.540;2023-08-07T10:18:54;7.55;;;2.25;;
49366;SDS011;35245;52.026;8.540;2023-08-07T10:21:22;7.18;;;2.53;;
49366;SDS011;35245;52.026;8.540;2023-08-07T10:23:50;7.15;;;2.05;;
49366;SDS011;35245;52.026;8.540;2023-08-07T10:26:20;8.82;;;1.90;;
49366;SDS011;35245;52.026;8.540;2023-08-07T10:28:48;8.00;;;2.25;;
49366;SDS011;35245;52.026;8.540;2023-08-07T10:31:18;6.85;;;2.83;;
49366;SDS011;35245;52.026;8.540;2023-08-07T10:33:49;10.43;;;2.53;;
49366;SDS011;35245;52.026;8.540;2023-08-07T10:36:18;5.28;;;2.10;;
49366;SDS011;35245;52.026;8.540;2023-08-07T10:38:47;4.68;;;1.40;;
49366;SDS011;35245;52.026;8.540;2023-08-07T10:41:16;4.43;;;1.55;;
49366;SDS011;35245;52.026;8.540;2023-08-07T10:43:45;2.55;;;1.30;;
49366;SDS011;35245;52.026;8.540;2023-08-07T10:46:14;4.55;;;1.27;;
49366;SDS011;35245;52.026;8.540;2023-08-07T10:48:46;4.68;;;1.42;;
49366;SDS011;35245;52.026;8.540;2023-08-07T10:51:21;5.43;;;1.73;;
49366;SDS011;35245;52.026;8.540;2023-08-07T10:53:55;4.30;;;1.30;;
49366;SDS011;35245;52.026;8.540;2023-08-07T10:56:29;7.90;;;2.22;;
49366;SDS011;35245;52.026;8.540;2023-08-07T10:58:58;5.07;;;1.63;;
49366;SDS011;35245;52.026;8.540;2023-08-07T11:01:39;5.90;;;1.90;;
49366;SDS011;35245;52.026;8.540;2023-08-07T11:04:08;6.28;;;1.60;;
49366;SDS011;35245;52.026;8.540;2023-08-07T11:06:38;6.60;;;2.17;;
49366;SDS011;35245;52.026;8.540;2023-08-07T11:09:07;7.10;;;1.95;;
49366;SDS011;35245;52.026;8.540;2023-08-07T11:11:36;5.80;;;2.25;;
49366;SDS011;35245;52.026;8.540;2023-08-07T11:14:05;7.07;;;2.03;;
49366;SDS011;35245;52.026;8.540;2023-08-07T11:16:32;5.13;;;1.90;;
49366;SDS011;35245;52.026;8.540;2023-08-07T11:19:01;9.75;;;2.83;;
49366;SDS011;35245;52.026;8.540;2023-08-07T11:21:29;7.90;;;2.63;;
49366;SDS011;35245;52.026;8.540;2023-08-07T11:23:59;14.20;;;3.30;;
49366;SDS011;35245;52.026;8.540;2023-08-07T11:26:27;10.77;;;3.13;;
49366;SDS011;35245;52.026;8.540;2023-08-07T11:28:54;10.02;;;3.95;;
49366;SDS011;35245;52.026;8.540;2023-08-07T11:31:22;9.15;;;2.95;;
49366;SDS011;35245;52.026;8.540;2023-08-07T11:33:50;12.52;;;3.88;;
49366;SDS011;35245;52.026;8.540;2023-08-07T11:36:18;10.05;;;3.80;;
49366;SDS011;35245;52.026;8.540;2023-08-07T11:38:45;12.18;;;3.30;;
49366;SDS011;35245;52.026;8.540;2023-08-07T11:41:14;9.63;;;3.63;;
49366;SDS011;35245;52.026;8.540;2023-08-07T11:43:43;7.07;;;2.60;;
49366;SDS011;35245;52.026;8.540;2023-08-07T11:46:11;6.32;;;2.50;;
49366;SDS011;35245;52.026;8.540;2023-08-07T11:48:40;10.02;;;3.00;;
49366;SDS011;35245;52.026;8.540;2023-08-07T11:51:09;7.97;;;2.85;;
49366;SDS011;35245;52.026;8.540;2023-08-07T11:53:37;10.45;;;3.03;;
49366;SDS011;35245;52.026;8.540;2023-08-07T11:56:06;8.05;;;2.70;;
49366;SDS011;35245;52.026;8.540;2023-08-07T11:58:37;8.30;;;2.30;;
49366;SDS011;35245;52.026;8.540;2023-08-07T12:01:08;10.13;;;3.47;;
49366;SDS011;35245;52.026;8.540;2023-08-07T12:03:38;6.40;;;2.90;;
49366;SDS011;35245;52.026;8.540;2023-08-07T12:06:08;8.48;;;3.13;;
49366;SDS011;35245;52.026;8.540;2023-08-07T12:08:36;7.03;;;2.90;;
49366;SDS011;35245;52.026;8.540;2023-08-07T12:11:05;7.25;;;2.70;;
49366;SDS011;35245;52.026;8.540;2023-08-07T12:13:36;8.38;;;2.83;;
49366;SDS011;35245;52.026;8.540;2023-08-07T12:16:05;10.38;;;3.17;;
49366;SDS011;35245;52.026;8.540;2023-08-07T12:18:33;8.18;;;2.63;;
49366;SDS011;35245;52.026;8.540;2023-08-07T12:21:03;6.15;;;2.45;;
49366;SDS011;35245;52.026;8.540;2023-08-07T12:23:33;8.68;;;2.30;;
49366;SDS011;35245;52.026;8.540;2023-08-07T12:26:01;4.95;;;2.45;;
49366;SDS011;35245;52.026;8.540;2023-08-07T12:28:31;9.65;;;2.53;;
49366;SDS011;35245;52.026;8.540;2023-08-07T12:30:59;8.13;;;3.00;;
49366;SDS011;35245;52.026;8.540;2023-08-07T12:33:28;9.45;;;3.33;;
49366;SDS011;35245;52.026;8.540;2023-08-07T12:35:56;10.27;;;3.45;;
49366;SDS011;35245;52.026;8.540;2023-08-07T12:38:23;9.43;;;2.95;;
49366;SDS011;35245;52.026;8.540;2023-08-07T12:40:51;12.73;;;2.78;;
49366;SDS011;35245;52.026;8.540;2023-08-07T12:43:18;10.38;;;3.10;;
49366;SDS011;35245;52.026;8.540;2023-08-07T12:45:46;7.95;;;2.70;;
49366;SDS011;35245;52.026;8.540;2023-08-07T12:48:14;5.30;;;2.40;;
49366;SDS011;35245;52.026;8.540;2023-08-07T12:50:43;8.48;;;3.25;;
49366;SDS011;35245;52.026;8.540;2023-08-07T12:53:10;8.25;;;2.80;;
49366;SDS011;35245;52.026;8.540;2023-08-07T12:55:37;9.05;;;2.92;;
49366;SDS011;35245;52.026;8.540;2023-08-07T12:58:04;7.50;;;2.47;;
49366;SDS011;35245;52.026;8.540;2023-08-07T13:00:31;5.88;;;2.20;;
49366;SDS011;35245;52.026;8.540;2023-08-07T13:02:58;6.72;;;2.83;;
49366;SDS011;35245;52.026;8.540;2023-08-07T13:05:27;7.30;;;2.83;;
49366;SDS011;35245;52.026;8.540;2023-08-07T13:07:56;9.55;;;3.17;;
49366;SDS011;35245;52.026;8.540;2023-08-07T13:10:23;6.03;;;2.15;;
49366;SDS011;35245;52.026;8.540;2023-08-07T13:12:53;5.95;;;1.77;;
49366;SDS011;35245;52.026;8.540;2023-08-07T13:15:20;10.70;;;2.75;;
49366;SDS011;35245;52.026;8.540;2023-08-07T13:17:47;8.77;;;3.53;;
49366;SDS011;35245;52.026;8.540;2023-08-07T13:20:14;8.80;;;2.75;;
49366;SDS011;35245;52.026;8.540;2023-08-07T13:22:44;8.60;;;2.40;;
49366;SDS011;35245;52.026;8.540;2023-08-07T13:25:11;5.75;;;2.33;;
49366;SDS011;35245;52.026;8.540;2023-08-07T13:27:39;7.97;;;3.08;;
49366;SDS011;35245;52.026;8.540;2023-08-07T13:30:08;5.88;;;2.42;;
49366;SDS011;35245;52.026;8.540;2023-08-07T13:32:36;7.43;;;2.42;;
49366;SDS011;35245;52.026;8.540;2023-08-07T13:35:03;10.25;;;3.13;;
49366;SDS011;35245;52.026;8.540;2023-08-07T13:37:32;7.68;;;2.47;;
49366;SDS011;35245;52.026;8.540;2023-08-07T13:40:00;7.85;;;2.65;;
49366;SDS011;35245;52.026;8.540;2023-08-07T13:42:29;6.72;;;2.28;;
49366;SDS011;35245;52.026;8.540;2023-08-07T13:44:57;8.88;;;2.72;;
49366;SDS011;35245;52.026;8.540;2023-08-07T13:47:24;7.10;;;2.47;;
49366;SDS011;35245;52.026;8.540;2023-08-07T13:49:51;6.80;;;3.17;;
49366;SDS011;35245;52.026;8.540;2023-08-07T13:52:19;6.78;;;2.78;;
49366;SDS011;35245;52.026;8.540;2023-08-07T13:54:47;5.03;;;2.45;;
49366;SDS011;35245;52.026;8.540;2023-08-07T13:57:15;7.90;;;2.72;;
49366;SDS011;35245;52.026;8.540;2023-08-07T13:59:42;8.07;;;2.17;;
49366;SDS011;35245;52.026;8.540;2023-08-07T14:02:09;9.25;;;3.30;;
49366;SDS011;35245;52.026;8.540;2023-08-07T14:04:37;9.60;;;3.72;;
49366;SDS011;35245;52.026;8.540;2023-08-07T14:07:04;6.70;;;2.75;;
49366;SDS011;35245;52.026;8.540;2023-08-07T14:09:32;7.85;;;2.25;;
49366;SDS011;35245;52.026;8.540;2023-08-07T14:11:59;5.97;;;2.95;;
49366;SDS011;35245;52.026;8.540;2023-08-07T14:14:27;5.70;;;2.17;;
49366;SDS011;35245;52.026;8.540;2023-08-07T14:16:54;5.15;;;2.75;;
49366;SDS011;35245;52.026;8.540;2023-08-07T14:19:25;5.20;;;2.20;;
49366;SDS011;35245;52.026;8.540;2023-08-07T14:21:53;5.68;;;2.60;;
49366;SDS011;35245;52.026;8.540;2023-08-07T14:24:20;7.97;;;2.50;;
49366;SDS011;35245;52.026;8.540;2023-08-07T14:26:47;4.13;;;1.88;;
49366;SDS011;35245;52.026;8.540;2023-08-07T14:29:14;5.43;;;2.50;;
49366;SDS011;35245;52.026;8.540;2023-08-07T14:31:43;6.78;;;3.50;;
49366;SDS011;35245;52.026;8.540;2023-08-07T14:34:10;5.35;;;2.78;;
49366;SDS011;35245;52.026;8.540;2023-08-07T14:36:37;6.15;;;2.63;;
49366;SDS011;35245;52.026;8.540;2023-08-07T14:39:05;4.65;;;2.17;;
49366;SDS011;35245;52.026;8.540;2023-08-07T14:41:32;6.63;;;1.90;;
49366;SDS011;35245;52.026;8.540;2023-08-07T14:43:59;6.22;;;2.17;;
49366;SDS011;35245;52.026;8.540;2023-08-07T14:46:26;4.90;;;2.10;;
49366;SDS011;35245;52.026;8.540;2023-08-07T14:48:55;6.28;;;2.67;;
49366;SDS011;35245;52.026;8.540;2023-08-07T14:51:22;8.30;;;3.30;;